logo
Search for airport 
image banner adimage banner adimage banner ad
image banner ad

FABRAN - Brandvlei

Located in , South Africa

ICAO - , IATA -

Data provided by Airmate  

General information

Coordinates: S30°28'1" E20°28'1"
Elevation is 4491 feet MSL.
 
View others Airports in Free State

Operational data

Special qualification required
Current time UTC:
Current local time:
Weather at : - ( 0 km )
METAR: KSAW 180758Z AUTO 28009KT 10SM OVC014 04/02 A2980 RMK AO2
View NOTAMs / SUP AIP / TFR affecting this airport [VIEW]
Communications frequencies: [VIEW]

Runways:

RWY identifierQFULength (ft)Width (ft)SurfaceLDA (ft)
01347°282249SAND
19167°282249SAND
14117°426549SAND
32297°426549SAND
0532°182149SAND
23212°182149SAND

Airport contact information

Address: South Africa

Satellite view of FABRAN